sensor_id;sensor_type;location;lat;lon;timestamp;P1;durP1;ratioP1;P2;durP2;ratioP2
10711;SDS011;5407;51.234;6.804;2024-01-30T00:01:11;11.93;;;7.97;;
10711;SDS011;5407;51.234;6.804;2024-01-30T00:03:39;11.07;;;7.50;;
10711;SDS011;5407;51.234;6.804;2024-01-30T00:06:17;10.10;;;7.77;;
10711;SDS011;5407;51.234;6.804;2024-01-30T00:08:48;9.80;;;8.07;;
10711;SDS011;5407;51.234;6.804;2024-01-30T00:11:16;11.90;;;8.37;;
10711;SDS011;5407;51.234;6.804;2024-01-30T00:13:56;12.60;;;8.63;;
10711;SDS011;5407;51.234;6.804;2024-01-30T00:16:37;11.73;;;8.37;;
10711;SDS011;5407;51.234;6.804;2024-01-30T00:19:36;14.47;;;8.87;;
10711;SDS011;5407;51.234;6.804;2024-01-30T00:22:06;11.23;;;8.80;;
10711;SDS011;5407;51.234;6.804;2024-01-30T00:24:55;10.37;;;8.50;;
10711;SDS011;5407;51.234;6.804;2024-01-30T00:27:49;11.53;;;8.10;;
10711;SDS011;5407;51.234;6.804;2024-01-30T00:30:29;10.87;;;8.27;;
10711;SDS011;5407;51.234;6.804;2024-01-30T00:36:55;11.53;;;9.03;;
10711;SDS011;5407;51.234;6.804;2024-01-30T00:39:33;12.60;;;8.63;;
10711;SDS011;5407;51.234;6.804;2024-01-30T00:42:04;12.97;;;9.37;;
10711;SDS011;5407;51.234;6.804;2024-01-30T00:44:40;11.30;;;8.37;;
10711;SDS011;5407;51.234;6.804;2024-01-30T00:47:10;12.93;;;8.90;;
10711;SDS011;5407;51.234;6.804;2024-01-30T00:49:41;14.77;;;8.97;;
10711;SDS011;5407;51.234;6.804;2024-01-30T00:52:26;11.70;;;9.17;;
10711;SDS011;5407;51.234;6.804;2024-01-30T00:55:28;14.23;;;8.90;;
10711;SDS011;5407;51.234;6.804;2024-01-30T01:05:08;14.10;;;9.03;;
10711;SDS011;5407;51.234;6.804;2024-01-30T01:16:40;11.17;;;9.20;;
10711;SDS011;5407;51.234;6.804;2024-01-30T01:29:01;11.67;;;9.83;;
10711;SDS011;5407;51.234;6.804;2024-01-30T01:31:46;11.93;;;9.17;;
10711;SDS011;5407;51.234;6.804;2024-01-30T01:34:24;10.80;;;8.93;;
10711;SDS011;5407;51.234;6.804;2024-01-30T01:37:02;14.47;;;9.10;;
10711;SDS011;5407;51.234;6.804;2024-01-30T01:39:32;12.37;;;9.53;;
10711;SDS011;5407;51.234;6.804;2024-01-30T01:42:18;11.47;;;9.07;;
10711;SDS011;5407;51.234;6.804;2024-01-30T01:44:56;13.83;;;8.83;;
10711;SDS011;5407;51.234;6.804;2024-01-30T01:47:34;10.47;;;8.63;;
10711;SDS011;5407;51.234;6.804;2024-01-30T01:50:02;12.57;;;9.03;;
10711;SDS011;5407;51.234;6.804;2024-01-30T01:52:32;12.23;;;8.73;;
10711;SDS011;5407;51.234;6.804;2024-01-30T01:55:00;15.70;;;9.33;;
10711;SDS011;5407;51.234;6.804;2024-01-30T01:57:33;11.77;;;8.83;;
10711;SDS011;5407;51.234;6.804;2024-01-30T02:00:04;10.37;;;8.63;;
10711;SDS011;5407;51.234;6.804;2024-01-30T02:02:36;14.23;;;8.73;;
10711;SDS011;5407;51.234;6.804;2024-01-30T02:05:09;16.57;;;9.07;;
10711;SDS011;5407;51.234;6.804;2024-01-30T02:07:40;13.73;;;9.10;;
10711;SDS011;5407;51.234;6.804;2024-01-30T02:10:08;11.90;;;8.53;;
10711;SDS011;5407;51.234;6.804;2024-01-30T02:12:39;16.03;;;8.57;;
10711;SDS011;5407;51.234;6.804;2024-01-30T02:15:08;10.47;;;8.00;;
10711;SDS011;5407;51.234;6.804;2024-01-30T02:17:48;10.53;;;8.13;;
10711;SDS011;5407;51.234;6.804;2024-01-30T02:20:16;11.27;;;8.00;;
10711;SDS011;5407;51.234;6.804;2024-01-30T02:22:48;10.20;;;8.00;;
10711;SDS011;5407;51.234;6.804;2024-01-30T02:28:30;13.37;;;8.70;;
10711;SDS011;5407;51.234;6.804;2024-01-30T02:31:03;12.00;;;8.10;;
10711;SDS011;5407;51.234;6.804;2024-01-30T02:33:41;12.13;;;7.97;;
10711;SDS011;5407;51.234;6.804;2024-01-30T02:47:07;12.47;;;9.03;;
10711;SDS011;5407;51.234;6.804;2024-01-30T02:50:09;10.13;;;8.27;;
10711;SDS011;5407;51.234;6.804;2024-01-30T02:52:56;11.03;;;7.97;;
10711;SDS011;5407;51.234;6.804;2024-01-30T02:55:49;12.40;;;8.23;;
10711;SDS011;5407;51.234;6.804;2024-01-30T03:04:48;11.07;;;8.23;;
10711;SDS011;5407;51.234;6.804;2024-01-30T03:07:16;14.40;;;7.90;;
10711;SDS011;5407;51.234;6.804;2024-01-30T03:09:44;10.23;;;8.57;;
10711;SDS011;5407;51.234;6.804;2024-01-30T03:16:03;12.17;;;8.20;;
10711;SDS011;5407;51.234;6.804;2024-01-30T03:18:40;9.13;;;7.63;;
10711;SDS011;5407;51.234;6.804;2024-01-30T03:21:23;15.23;;;8.00;;
10711;SDS011;5407;51.234;6.804;2024-01-30T03:24:21;12.80;;;7.87;;
10711;SDS011;5407;51.234;6.804;2024-01-30T03:26:54;10.30;;;7.53;;
10711;SDS011;5407;51.234;6.804;2024-01-30T03:29:39;9.53;;;7.53;;
10711;SDS011;5407;51.234;6.804;2024-01-30T03:32:10;11.73;;;8.03;;
10711;SDS011;5407;51.234;6.804;2024-01-30T03:34:37;9.23;;;7.47;;
10711;SDS011;5407;51.234;6.804;2024-01-30T03:37:13;12.77;;;8.17;;
10711;SDS011;5407;51.234;6.804;2024-01-30T03:39:52;13.63;;;8.37;;
10711;SDS011;5407;51.234;6.804;2024-01-30T03:42:25;12.70;;;8.17;;
10711;SDS011;5407;51.234;6.804;2024-01-30T03:44:52;15.70;;;8.13;;
10711;SDS011;5407;51.234;6.804;2024-01-30T03:47:26;11.20;;;7.97;;
10711;SDS011;5407;51.234;6.804;2024-01-30T03:56:45;11.20;;;7.87;;
10711;SDS011;5407;51.234;6.804;2024-01-30T04:00:23;11.27;;;8.13;;
10711;SDS011;5407;51.234;6.804;2024-01-30T04:02:42;10.53;;;7.67;;
10711;SDS011;5407;51.234;6.804;2024-01-30T04:06:01;11.93;;;8.20;;
10711;SDS011;5407;51.234;6.804;2024-01-30T04:11:20;12.23;;;8.17;;
10711;SDS011;5407;51.234;6.804;2024-01-30T04:19:45;10.87;;;7.53;;
10711;SDS011;5407;51.234;6.804;2024-01-30T04:22:38;11.80;;;7.77;;
10711;SDS011;5407;51.234;6.804;2024-01-30T04:25:11;12.03;;;7.90;;
10711;SDS011;5407;51.234;6.804;2024-01-30T04:28:19;11.27;;;8.30;;
10711;SDS011;5407;51.234;6.804;2024-01-30T04:37:29;9.80;;;7.87;;
10711;SDS011;5407;51.234;6.804;2024-01-30T04:40:07;11.17;;;7.93;;
10711;SDS011;5407;51.234;6.804;2024-01-30T04:43:31;11.13;;;8.33;;
10711;SDS011;5407;51.234;6.804;2024-01-30T04:46:16;10.57;;;8.20;;
10711;SDS011;5407;51.234;6.804;2024-01-30T04:52:20;15.77;;;8.90;;
10711;SDS011;5407;51.234;6.804;2024-01-30T04:59:02;10.00;;;7.90;;
10711;SDS011;5407;51.234;6.804;2024-01-30T05:05:02;12.07;;;8.10;;
10711;SDS011;5407;51.234;6.804;2024-01-30T05:07:34;14.60;;;8.30;;
10711;SDS011;5407;51.234;6.804;2024-01-30T05:10:11;12.87;;;8.03;;
10711;SDS011;5407;51.234;6.804;2024-01-30T05:12:40;12.90;;;8.07;;
10711;SDS011;5407;51.234;6.804;2024-01-30T05:15:37;10.17;;;7.90;;
10711;SDS011;5407;51.234;6.804;2024-01-30T05:19:07;10.53;;;8.07;;
10711;SDS011;5407;51.234;6.804;2024-01-30T05:25:11;10.73;;;8.10;;
10711;SDS011;5407;51.234;6.804;2024-01-30T05:27:56;10.47;;;8.30;;
10711;SDS011;5407;51.234;6.804;2024-01-30T05:30:23;12.00;;;8.17;;
10711;SDS011;5407;51.234;6.804;2024-01-30T05:40:15;11.03;;;8.07;;
10711;SDS011;5407;51.234;6.804;2024-01-30T05:47:01;12.57;;;8.30;;
10711;SDS011;5407;51.234;6.804;2024-01-30T05:50:43;10.43;;;8.80;;
10711;SDS011;5407;51.234;6.804;2024-01-30T06:05:16;9.97;;;8.50;;
10711;SDS011;5407;51.234;6.804;2024-01-30T06:07:57;15.37;;;8.73;;
10711;SDS011;5407;51.234;6.804;2024-01-30T06:10:56;13.30;;;8.97;;
10711;SDS011;5407;51.234;6.804;2024-01-30T06:17:50;15.43;;;8.87;;
10711;SDS011;5407;51.234;6.804;2024-01-30T06:20:19;19.43;;;9.00;;
10711;SDS011;5407;51.234;6.804;2024-01-30T06:22:46;11.87;;;8.63;;
10711;SDS011;5407;51.234;6.804;2024-01-30T06:25:14;13.20;;;8.70;;
10711;SDS011;5407;51.234;6.804;2024-01-30T06:27:42;9.83;;;8.37;;
10711;SDS011;5407;51.234;6.804;2024-01-30T06:30:09;13.87;;;9.03;;
10711;SDS011;5407;51.234;6.804;2024-01-30T06:32:37;12.60;;;9.27;;
10711;SDS011;5407;51.234;6.804;2024-01-30T06:35:04;9.47;;;7.90;;
10711;SDS011;5407;51.234;6.804;2024-01-30T06:37:33;12.40;;;8.40;;
10711;SDS011;5407;51.234;6.804;2024-01-30T06:40:00;11.47;;;8.83;;
10711;SDS011;5407;51.234;6.804;2024-01-30T06:42:27;10.77;;;7.73;;
10711;SDS011;5407;51.234;6.804;2024-01-30T06:44:54;9.90;;;8.63;;
10711;SDS011;5407;51.234;6.804;2024-01-30T06:47:21;13.10;;;8.30;;
10711;SDS011;5407;51.234;6.804;2024-01-30T06:49:48;10.83;;;8.50;;
10711;SDS011;5407;51.234;6.804;2024-01-30T06:52:15;17.90;;;8.87;;
10711;SDS011;5407;51.234;6.804;2024-01-30T06:54:43;12.43;;;8.93;;
10711;SDS011;5407;51.234;6.804;2024-01-30T06:57:10;11.67;;;7.97;;
10711;SDS011;5407;51.234;6.804;2024-01-30T06:59:39;11.80;;;9.23;;
10711;SDS011;5407;51.234;6.804;2024-01-30T07:02:08;10.10;;;7.73;;
10711;SDS011;5407;51.234;6.804;2024-01-30T07:04:35;10.27;;;7.87;;
10711;SDS011;5407;51.234;6.804;2024-01-30T07:07:04;12.23;;;8.27;;
10711;SDS011;5407;51.234;6.804;2024-01-30T07:09:37;11.47;;;8.43;;
10711;SDS011;5407;51.234;6.804;2024-01-30T07:12:05;11.97;;;7.93;;
10711;SDS011;5407;51.234;6.804;2024-01-30T07:14:32;9.73;;;8.17;;
10711;SDS011;5407;51.234;6.804;2024-01-30T07:16:59;9.90;;;8.00;;
10711;SDS011;5407;51.234;6.804;2024-01-30T07:19:26;13.33;;;8.17;;
10711;SDS011;5407;51.234;6.804;2024-01-30T07:21:53;9.23;;;7.83;;
10711;SDS011;5407;51.234;6.804;2024-01-30T07:24:20;16.83;;;8.27;;
10711;SDS011;5407;51.234;6.804;2024-01-30T07:26:47;10.70;;;7.73;;
10711;SDS011;5407;51.234;6.804;2024-01-30T07:29:15;12.40;;;9.27;;
10711;SDS011;5407;51.234;6.804;2024-01-30T07:31:42;10.17;;;8.23;;
10711;SDS011;5407;51.234;6.804;2024-01-30T07:34:09;10.87;;;8.17;;
10711;SDS011;5407;51.234;6.804;2024-01-30T07:36:36;11.17;;;8.17;;
10711;SDS011;5407;51.234;6.804;2024-01-30T07:39:03;11.03;;;8.13;;
10711;SDS011;5407;51.234;6.804;2024-01-30T07:41:30;10.80;;;8.00;;
10711;SDS011;5407;51.234;6.804;2024-01-30T07:43:57;12.50;;;7.53;;
10711;SDS011;5407;51.234;6.804;2024-01-30T07:46:26;14.57;;;8.17;;
10711;SDS011;5407;51.234;6.804;2024-01-30T07:48:53;13.73;;;7.90;;
10711;SDS011;5407;51.234;6.804;2024-01-30T07:51:20;12.63;;;8.07;;
10711;SDS011;5407;51.234;6.804;2024-01-30T07:53:47;11.73;;;8.30;;
10711;SDS011;5407;51.234;6.804;2024-01-30T08:03:46;13.93;;;8.50;;
10711;SDS011;5407;51.234;6.804;2024-01-30T08:06:13;13.57;;;8.53;;
10711;SDS011;5407;51.234;6.804;2024-01-30T08:08:40;10.60;;;8.23;;
10711;SDS011;5407;51.234;6.804;2024-01-30T08:11:07;12.70;;;8.40;;
10711;SDS011;5407;51.234;6.804;2024-01-30T08:13:34;10.40;;;8.17;;
10711;SDS011;5407;51.234;6.804;2024-01-30T08:16:01;10.27;;;8.00;;
10711;SDS011;5407;51.234;6.804;2024-01-30T08:18:27;11.77;;;8.47;;
10711;SDS011;5407;51.234;6.804;2024-01-30T08:20:56;10.40;;;7.77;;
10711;SDS011;5407;51.234;6.804;2024-01-30T08:23:22;12.37;;;8.47;;
10711;SDS011;5407;51.234;6.804;2024-01-30T08:25:49;11.33;;;8.03;;
10711;SDS011;5407;51.234;6.804;2024-01-30T08:28:16;11.60;;;7.90;;
10711;SDS011;5407;51.234;6.804;2024-01-30T08:30:43;10.70;;;8.37;;
10711;SDS011;5407;51.234;6.804;2024-01-30T08:33:10;10.83;;;8.13;;
10711;SDS011;5407;51.234;6.804;2024-01-30T08:35:37;11.73;;;8.10;;
10711;SDS011;5407;51.234;6.804;2024-01-30T08:38:05;11.20;;;7.80;;
10711;SDS011;5407;51.234;6.804;2024-01-30T08:40:32;12.00;;;7.70;;
10711;SDS011;5407;51.234;6.804;2024-01-30T08:42:59;11.33;;;8.63;;
10711;SDS011;5407;51.234;6.804;2024-01-30T08:45:26;12.10;;;7.83;;
10711;SDS011;5407;51.234;6.804;2024-01-30T08:47:53;11.47;;;7.73;;
10711;SDS011;5407;51.234;6.804;2024-01-30T08:50:19;15.87;;;8.07;;
10711;SDS011;5407;51.234;6.804;2024-01-30T08:52:46;11.90;;;7.83;;
10711;SDS011;5407;51.234;6.804;2024-01-30T08:55:14;16.33;;;8.40;;
10711;SDS011;5407;51.234;6.804;2024-01-30T08:57:41;10.97;;;8.40;;
10711;SDS011;5407;51.234;6.804;2024-01-30T09:00:08;11.63;;;8.20;;
10711;SDS011;5407;51.234;6.804;2024-01-30T09:02:36;14.33;;;9.37;;
10711;SDS011;5407;51.234;6.804;2024-01-30T09:05:03;16.63;;;8.30;;
10711;SDS011;5407;51.234;6.804;2024-01-30T09:07:30;10.23;;;7.47;;
10711;SDS011;5407;51.234;6.804;2024-01-30T09:09:57;14.10;;;7.60;;
10711;SDS011;5407;51.234;6.804;2024-01-30T09:12:25;12.20;;;8.17;;
10711;SDS011;5407;51.234;6.804;2024-01-30T09:14:52;10.20;;;8.00;;
10711;SDS011;5407;51.234;6.804;2024-01-30T09:17:20;16.60;;;7.80;;
10711;SDS011;5407;51.234;6.804;2024-01-30T09:19:47;11.03;;;7.70;;
10711;SDS011;5407;51.234;6.804;2024-01-30T09:22:13;12.73;;;7.80;;
10711;SDS011;5407;51.234;6.804;2024-01-30T09:24:40;11.93;;;8.07;;
10711;SDS011;5407;51.234;6.804;2024-01-30T09:27:07;13.47;;;7.87;;
10711;SDS011;5407;51.234;6.804;2024-01-30T09:29:35;10.60;;;8.13;;
10711;SDS011;5407;51.234;6.804;2024-01-30T09:32:03;12.93;;;7.77;;
10711;SDS011;5407;51.234;6.804;2024-01-30T09:34:31;13.40;;;8.00;;
10711;SDS011;5407;51.234;6.804;2024-01-30T09:36:58;11.03;;;7.63;;
10711;SDS011;5407;51.234;6.804;2024-01-30T09:39:26;12.17;;;8.00;;
10711;SDS011;5407;51.234;6.804;2024-01-30T09:41:56;11.90;;;7.20;;
10711;SDS011;5407;51.234;6.804;2024-01-30T09:44:29;15.73;;;8.23;;
10711;SDS011;5407;51.234;6.804;2024-01-30T09:46:58;10.00;;;7.80;;
10711;SDS011;5407;51.234;6.804;2024-01-30T09:49:29;12.23;;;8.37;;
10711;SDS011;5407;51.234;6.804;2024-01-30T09:51:57;11.50;;;7.23;;
10711;SDS011;5407;51.234;6.804;2024-01-30T09:54:25;11.47;;;7.77;;
10711;SDS011;5407;51.234;6.804;2024-01-30T09:56:51;15.80;;;9.00;;
10711;SDS011;5407;51.234;6.804;2024-01-30T09:59:18;14.00;;;7.87;;
10711;SDS011;5407;51.234;6.804;2024-01-30T10:01:45;17.37;;;8.07;;
10711;SDS011;5407;51.234;6.804;2024-01-30T10:04:14;17.00;;;8.33;;
10711;SDS011;5407;51.234;6.804;2024-01-30T10:06:40;14.17;;;8.67;;
10711;SDS011;5407;51.234;6.804;2024-01-30T10:09:08;10.37;;;7.93;;
10711;SDS011;5407;51.234;6.804;2024-01-30T10:11:35;11.53;;;8.20;;
10711;SDS011;5407;51.234;6.804;2024-01-30T10:14:02;12.63;;;8.13;;
10711;SDS011;5407;51.234;6.804;2024-01-30T10:16:29;10.90;;;7.93;;
10711;SDS011;5407;51.234;6.804;2024-01-30T10:18:56;13.73;;;7.90;;
10711;SDS011;5407;51.234;6.804;2024-01-30T10:21:24;12.67;;;7.23;;
10711;SDS011;5407;51.234;6.804;2024-01-30T10:23:51;12.73;;;7.70;;
10711;SDS011;5407;51.234;6.804;2024-01-30T10:26:18;9.97;;;7.77;;
10711;SDS011;5407;51.234;6.804;2024-01-30T10:28:45;11.60;;;8.33;;
10711;SDS011;5407;51.234;6.804;2024-01-30T10:31:16;15.47;;;8.67;;
10711;SDS011;5407;51.234;6.804;2024-01-30T10:33:43;13.40;;;8.17;;
10711;SDS011;5407;51.234;6.804;2024-01-30T10:36:11;14.43;;;8.83;;
10711;SDS011;5407;51.234;6.804;2024-01-30T10:38:42;11.67;;;7.73;;
10711;SDS011;5407;51.234;6.804;2024-01-30T10:41:11;13.63;;;8.40;;
10711;SDS011;5407;51.234;6.804;2024-01-30T10:43:40;11.13;;;7.87;;
10711;SDS011;5407;51.234;6.804;2024-01-30T10:46:10;10.20;;;7.80;;
10711;SDS011;5407;51.234;6.804;2024-01-30T10:48:42;14.70;;;8.50;;
10711;SDS011;5407;51.234;6.804;2024-01-30T10:51:10;11.47;;;8.27;;
10711;SDS011;5407;51.234;6.804;2024-01-30T10:53:38;12.60;;;8.40;;
10711;SDS011;5407;51.234;6.804;2024-01-30T10:56:07;10.80;;;8.30;;
10711;SDS011;5407;51.234;6.804;2024-01-30T10:58:36;10.77;;;7.83;;
10711;SDS011;5407;51.234;6.804;2024-01-30T11:01:03;12.30;;;8.10;;
10711;SDS011;5407;51.234;6.804;2024-01-30T11:03:32;12.77;;;7.70;;
10711;SDS011;5407;51.234;6.804;2024-01-30T11:06:02;15.50;;;8.00;;
10711;SDS011;5407;51.234;6.804;2024-01-30T11:08:31;13.60;;;7.60;;
10711;SDS011;5407;51.234;6.804;2024-01-30T11:10:58;14.10;;;7.80;;
10711;SDS011;5407;51.234;6.804;2024-01-30T11:13:30;13.83;;;8.00;;
10711;SDS011;5407;51.234;6.804;2024-01-30T11:16:00;13.47;;;8.37;;
10711;SDS011;5407;51.234;6.804;2024-01-30T11:18:28;11.23;;;7.53;;
10711;SDS011;5407;51.234;6.804;2024-01-30T11:20:56;13.07;;;8.57;;
10711;SDS011;5407;51.234;6.804;2024-01-30T11:23:24;13.57;;;8.43;;
10711;SDS011;5407;51.234;6.804;2024-01-30T11:25:52;16.10;;;8.47;;
10711;SDS011;5407;51.234;6.804;2024-01-30T11:28:20;14.57;;;8.07;;
10711;SDS011;5407;51.234;6.804;2024-01-30T11:30:49;13.00;;;8.10;;
10711;SDS011;5407;51.234;6.804;2024-01-30T11:33:26;15.30;;;8.03;;
10711;SDS011;5407;51.234;6.804;2024-01-30T11:35:56;12.53;;;8.07;;
10711;SDS011;5407;51.234;6.804;2024-01-30T11:38:24;14.40;;;8.47;;
10711;SDS011;5407;51.234;6.804;2024-01-30T11:40:52;13.53;;;7.83;;
10711;SDS011;5407;51.234;6.804;2024-01-30T11:43:20;13.70;;;8.43;;
10711;SDS011;5407;51.234;6.804;2024-01-30T11:45:47;12.53;;;8.23;;
10711;SDS011;5407;51.234;6.804;2024-01-30T11:48:16;18.43;;;8.20;;
10711;SDS011;5407;51.234;6.804;2024-01-30T11:50:43;15.87;;;9.03;;
10711;SDS011;5407;51.234;6.804;2024-01-30T11:53:10;11.63;;;8.13;;
10711;SDS011;5407;51.234;6.804;2024-01-30T11:55:37;13.80;;;8.23;;
10711;SDS011;5407;51.234;6.804;2024-01-30T11:58:04;12.87;;;7.77;;
10711;SDS011;5407;51.234;6.804;2024-01-30T12:00:32;14.83;;;8.50;;
10711;SDS011;5407;51.234;6.804;2024-01-30T12:02:59;15.73;;;8.40;;
10711;SDS011;5407;51.234;6.804;2024-01-30T12:05:28;13.03;;;8.10;;
10711;SDS011;5407;51.234;6.804;2024-01-30T12:07:55;11.03;;;7.90;;
10711;SDS011;5407;51.234;6.804;2024-01-30T12:10:24;15.90;;;8.37;;
10711;SDS011;5407;51.234;6.804;2024-01-30T12:12:52;14.40;;;8.20;;
10711;SDS011;5407;51.234;6.804;2024-01-30T12:15:21;10.17;;;7.60;;
10711;SDS011;5407;51.234;6.804;2024-01-30T12:17:49;15.37;;;8.27;;
10711;SDS011;5407;51.234;6.804;2024-01-30T12:20:17;17.43;;;8.70;;
10711;SDS011;5407;51.234;6.804;2024-01-30T12:22:48;17.03;;;8.50;;
10711;SDS011;5407;51.234;6.804;2024-01-30T12:25:17;19.93;;;8.97;;
10711;SDS011;5407;51.234;6.804;2024-01-30T12:27:48;16.40;;;7.97;;
10711;SDS011;5407;51.234;6.804;2024-01-30T12:30:16;12.90;;;7.97;;
10711;SDS011;5407;51.234;6.804;2024-01-30T12:32:45;13.70;;;7.83;;
10711;SDS011;5407;51.234;6.804;2024-01-30T12:35:13;11.97;;;7.30;;
10711;SDS011;5407;51.234;6.804;2024-01-30T12:37:40;14.33;;;7.80;;
10711;SDS011;5407;51.234;6.804;2024-01-30T12:40:10;14.50;;;7.63;;
10711;SDS011;5407;51.234;6.804;2024-01-30T12:42:39;11.23;;;7.60;;
10711;SDS011;5407;51.234;6.804;2024-01-30T12:45:08;16.03;;;7.30;;
10711;SDS011;5407;51.234;6.804;2024-01-30T12:47:35;13.67;;;7.17;;
10711;SDS011;5407;51.234;6.804;2024-01-30T12:50:02;15.10;;;7.70;;
10711;SDS011;5407;51.234;6.804;2024-01-30T12:52:29;13.93;;;7.03;;
10711;SDS011;5407;51.234;6.804;2024-01-30T12:54:57;17.23;;;7.13;;
10711;SDS011;5407;51.234;6.804;2024-01-30T12:57:25;24.53;;;10.70;;
10711;SDS011;5407;51.234;6.804;2024-01-30T12:59:52;13.37;;;7.07;;
10711;SDS011;5407;51.234;6.804;2024-01-30T13:02:19;12.33;;;6.40;;
10711;SDS011;5407;51.234;6.804;2024-01-30T13:04:46;12.50;;;6.60;;
10711;SDS011;5407;51.234;6.804;2024-01-30T13:07:13;14.80;;;6.60;;
10711;SDS011;5407;51.234;6.804;2024-01-30T13:09:40;10.30;;;6.10;;
10711;SDS011;5407;51.234;6.804;2024-01-30T13:12:07;15.60;;;6.63;;
10711;SDS011;5407;51.234;6.804;2024-01-30T13:14:36;13.97;;;6.23;;
10711;SDS011;5407;51.234;6.804;2024-01-30T13:17:03;10.13;;;6.70;;
10711;SDS011;5407;51.234;6.804;2024-01-30T13:19:30;9.43;;;6.87;;
10711;SDS011;5407;51.234;6.804;2024-01-30T13:21:56;9.53;;;6.93;;
10711;SDS011;5407;51.234;6.804;2024-01-30T13:24:23;13.07;;;7.27;;
10711;SDS011;5407;51.234;6.804;2024-01-30T13:26:50;12.57;;;7.57;;
10711;SDS011;5407;51.234;6.804;2024-01-30T13:29:18;12.60;;;6.63;;
10711;SDS011;5407;51.234;6.804;2024-01-30T13:31:46;13.07;;;6.80;;
10711;SDS011;5407;51.234;6.804;2024-01-30T13:34:13;14.57;;;6.70;;
10711;SDS011;5407;51.234;6.804;2024-01-30T13:36:40;10.17;;;7.00;;
10711;SDS011;5407;51.234;6.804;2024-01-30T13:39:07;16.13;;;7.20;;
10711;SDS011;5407;51.234;6.804;2024-01-30T13:41:36;12.70;;;7.17;;
10711;SDS011;5407;51.234;6.804;2024-01-30T13:44:03;14.23;;;6.80;;
10711;SDS011;5407;51.234;6.804;2024-01-30T13:46:30;11.73;;;7.70;;
10711;SDS011;5407;51.234;6.804;2024-01-30T13:48:58;11.10;;;6.83;;
10711;SDS011;5407;51.234;6.804;2024-01-30T13:51:25;13.23;;;7.73;;
10711;SDS011;5407;51.234;6.804;2024-01-30T13:53:52;11.27;;;7.13;;
10711;SDS011;5407;51.234;6.804;2024-01-30T13:56:19;11.73;;;7.37;;
10711;SDS011;5407;51.234;6.804;2024-01-30T13:58:47;15.10;;;7.73;;
10711;SDS011;5407;51.234;6.804;2024-01-30T14:01:15;10.80;;;6.80;;
10711;SDS011;5407;51.234;6.804;2024-01-30T14:03:42;10.77;;;6.83;;
10711;SDS011;5407;51.234;6.804;2024-01-30T14:06:10;12.33;;;7.50;;
10711;SDS011;5407;51.234;6.804;2024-01-30T14:08:37;12.53;;;7.70;;
10711;SDS011;5407;51.234;6.804;2024-01-30T14:11:04;13.47;;;7.67;;
10711;SDS011;5407;51.234;6.804;2024-01-30T14:13:32;14.27;;;8.00;;
10711;SDS011;5407;51.234;6.804;2024-01-30T14:15:59;14.50;;;8.20;;
10711;SDS011;5407;51.234;6.804;2024-01-30T14:18:26;19.60;;;9.07;;
10711;SDS011;5407;51.234;6.804;2024-01-30T14:20:53;17.60;;;10.03;;
10711;SDS011;5407;51.234;6.804;2024-01-30T14:23:22;13.00;;;7.67;;
10711;SDS011;5407;51.234;6.804;2024-01-30T14:25:49;15.83;;;7.60;;
10711;SDS011;5407;51.234;6.804;2024-01-30T14:28:17;12.97;;;7.03;;
10711;SDS011;5407;51.234;6.804;2024-01-30T14:30:44;9.73;;;6.90;;
10711;SDS011;5407;51.234;6.804;2024-01-30T14:33:12;15.23;;;8.00;;
10711;SDS011;5407;51.234;6.804;2024-01-30T14:35:39;11.07;;;7.17;;
10711;SDS011;5407;51.234;6.804;2024-01-30T14:38:06;12.80;;;7.70;;
10711;SDS011;5407;51.234;6.804;2024-01-30T14:40:35;14.13;;;7.17;;
10711;SDS011;5407;51.234;6.804;2024-01-30T14:43:01;11.67;;;7.53;;
10711;SDS011;5407;51.234;6.804;2024-01-30T14:45:28;12.97;;;7.20;;
10711;SDS011;5407;51.234;6.804;2024-01-30T14:47:57;14.43;;;7.30;;
10711;SDS011;5407;51.234;6.804;2024-01-30T14:50:24;14.60;;;7.47;;
10711;SDS011;5407;51.234;6.804;2024-01-30T14:52:52;13.07;;;7.73;;
10711;SDS011;5407;51.234;6.804;2024-01-30T14:55:19;17.90;;;7.67;;
10711;SDS011;5407;51.234;6.804;2024-01-30T14:57:47;14.03;;;6.83;;
10711;SDS011;5407;51.234;6.804;2024-01-30T15:00:15;11.60;;;7.60;;
10711;SDS011;5407;51.234;6.804;2024-01-30T15:02:42;16.80;;;7.40;;
10711;SDS011;5407;51.234;6.804;2024-01-30T15:05:09;14.10;;;7.67;;
10711;SDS011;5407;51.234;6.804;2024-01-30T15:07:36;18.23;;;8.13;;
10711;SDS011;5407;51.234;6.804;2024-01-30T15:10:04;15.00;;;8.07;;
10711;SDS011;5407;51.234;6.804;2024-01-30T15:12:31;12.57;;;7.50;;
10711;SDS011;5407;51.234;6.804;2024-01-30T15:14:59;12.83;;;8.63;;
10711;SDS011;5407;51.234;6.804;2024-01-30T15:17:26;19.10;;;8.70;;
10711;SDS011;5407;51.234;6.804;2024-01-30T15:19:53;13.37;;;7.23;;
10711;SDS011;5407;51.234;6.804;2024-01-30T15:22:20;12.17;;;5.47;;
10711;SDS011;5407;51.234;6.804;2024-01-30T15:24:47;10.23;;;4.63;;
10711;SDS011;5407;51.234;6.804;2024-01-30T15:27:14;8.27;;;4.47;;
10711;SDS011;5407;51.234;6.804;2024-01-30T15:29:41;8.93;;;4.40;;
10711;SDS011;5407;51.234;6.804;2024-01-30T15:32:09;11.70;;;5.17;;
10711;SDS011;5407;51.234;6.804;2024-01-30T15:34:36;12.37;;;5.20;;
10711;SDS011;5407;51.234;6.804;2024-01-30T15:37:04;12.67;;;5.70;;
10711;SDS011;5407;51.234;6.804;2024-01-30T15:39:31;11.33;;;5.80;;
10711;SDS011;5407;51.234;6.804;2024-01-30T15:41:58;12.40;;;6.00;;
10711;SDS011;5407;51.234;6.804;2024-01-30T15:44:25;8.83;;;5.50;;
10711;SDS011;5407;51.234;6.804;2024-01-30T15:46:52;13.50;;;5.80;;
10711;SDS011;5407;51.234;6.804;2024-01-30T15:49:21;15.07;;;6.17;;
10711;SDS011;5407;51.234;6.804;2024-01-30T15:51:48;14.70;;;5.90;;
10711;SDS011;5407;51.234;6.804;2024-01-30T15:54:15;11.00;;;5.53;;
10711;SDS011;5407;51.234;6.804;2024-01-30T15:56:42;6.93;;;4.30;;
10711;SDS011;5407;51.234;6.804;2024-01-30T15:59:09;7.77;;;3.90;;
10711;SDS011;5407;51.234;6.804;2024-01-30T16:01:36;6.73;;;3.27;;
10711;SDS011;5407;51.234;6.804;2024-01-30T16:04:03;8.63;;;2.83;;
10711;SDS011;5407;51.234;6.804;2024-01-30T16:06:32;6.73;;;2.70;;
10711;SDS011;5407;51.234;6.804;2024-01-30T16:08:59;6.83;;;2.00;;
10711;SDS011;5407;51.234;6.804;2024-01-30T16:11:26;2.73;;;1.97;;
10711;SDS011;5407;51.234;6.804;2024-01-30T16:13:53;7.63;;;2.50;;
10711;SDS011;5407;51.234;6.804;2024-01-30T16:16:20;5.37;;;2.20;;
10711;SDS011;5407;51.234;6.804;2024-01-30T16:18:47;5.13;;;2.73;;
10711;SDS011;5407;51.234;6.804;2024-01-30T16:21:14;8.80;;;2.60;;
10711;SDS011;5407;51.234;6.804;2024-01-30T16:23:42;4.30;;;2.00;;
10711;SDS011;5407;51.234;6.804;2024-01-30T16:26:10;8.57;;;1.93;;
10711;SDS011;5407;51.234;6.804;2024-01-30T16:28:37;3.97;;;1.70;;
10711;SDS011;5407;51.234;6.804;2024-01-30T16:31:05;5.53;;;1.70;;
10711;SDS011;5407;51.234;6.804;2024-01-30T16:33:32;4.90;;;1.90;;
10711;SDS011;5407;51.234;6.804;2024-01-30T16:35:59;6.77;;;1.80;;
10711;SDS011;5407;51.234;6.804;2024-01-30T16:38:26;3.20;;;1.57;;
10711;SDS011;5407;51.234;6.804;2024-01-30T16:40:54;3.60;;;2.00;;
10711;SDS011;5407;51.234;6.804;2024-01-30T16:43:21;5.27;;;2.60;;
10711;SDS011;5407;51.234;6.804;2024-01-30T16:45:48;6.20;;;2.80;;
10711;SDS011;5407;51.234;6.804;2024-01-30T16:48:15;3.23;;;1.87;;
10711;SDS011;5407;51.234;6.804;2024-01-30T16:50:45;4.03;;;2.20;;
10711;SDS011;5407;51.234;6.804;2024-01-30T16:53:13;7.13;;;3.53;;
10711;SDS011;5407;51.234;6.804;2024-01-30T16:55:40;7.40;;;2.40;;
10711;SDS011;5407;51.234;6.804;2024-01-30T16:58:08;4.83;;;2.30;;
10711;SDS011;5407;51.234;6.804;2024-01-30T17:00:37;4.47;;;1.50;;
10711;SDS011;5407;51.234;6.804;2024-01-30T17:03:04;3.07;;;1.33;;
10711;SDS011;5407;51.234;6.804;2024-01-30T17:05:31;4.90;;;1.67;;
10711;SDS011;5407;51.234;6.804;2024-01-30T17:07:58;4.67;;;1.53;;
10711;SDS011;5407;51.234;6.804;2024-01-30T17:10:26;4.27;;;1.50;;
10711;SDS011;5407;51.234;6.804;2024-01-30T17:12:53;5.90;;;1.50;;
10711;SDS011;5407;51.234;6.804;2024-01-30T17:15:21;6.83;;;1.60;;
10711;SDS011;5407;51.234;6.804;2024-01-30T17:17:48;4.20;;;1.30;;